sensor_id;sensor_type;location;lat;lon;timestamp;pressure;altitude;pressure_sealevel;temperature;humidity
67430;BME280;54298;52.076;5.264;2022-12-29T00:01:35;99843.0;;;11.98;80.86
67430;BME280;54298;52.076;5.264;2022-12-29T00:04:49;99837.0;;;12.06;80.39
67430;BME280;54298;52.076;5.264;2022-12-29T00:06:26;99837.0;;;12.06;79.86
67430;BME280;54298;52.076;5.264;2022-12-29T00:08:03;99834.0;;;11.98;80.09
67430;BME280;54298;52.076;5.264;2022-12-29T00:11:17;99825.0;;;11.94;80.14
67430;BME280;54298;52.076;5.264;2022-12-29T00:12:55;99818.0;;;12.03;79.8
67430;BME280;54298;52.076;5.264;2022-12-29T00:14:32;99822.0;;;11.97;79.94
67430;BME280;54298;52.076;5.264;2022-12-29T00:16:08;99813.0;;;11.94;79.97
67430;BME280;54298;52.076;5.264;2022-12-29T00:19:20;99811.0;;;12.05;79.58
67430;BME280;54298;52.076;5.264;2022-12-29T00:20:56;99810.0;;;12.05;79.48
67430;BME280;54298;52.076;5.264;2022-12-29T00:22:33;99805.0;;;12.03;79.7
67430;BME280;54298;52.076;5.264;2022-12-29T00:25:50;99803.0;;;12.05;79.81
67430;BME280;54298;52.076;5.264;2022-12-29T00:27:27;99805.0;;;12.06;79.67
67430;BME280;54298;52.076;5.264;2022-12-29T00:29:03;99800.0;;;12.15;79.48
67430;BME280;54298;52.076;5.264;2022-12-29T00:32:16;99800.0;;;12.09;79.5
67430;BME280;54298;52.076;5.264;2022-12-29T00:33:53;99798.0;;;12.18;79.23
67430;BME280;54298;52.076;5.264;2022-12-29T00:35:31;99800.0;;;12.08;79.72
67430;BME280;54298;52.076;5.264;2022-12-29T00:37:12;99793.0;;;12.1;79.66
67430;BME280;54298;52.076;5.264;2022-12-29T00:40:30;99795.0;;;12.07;79.7
67430;BME280;54298;52.076;5.264;2022-12-29T00:42:08;99793.0;;;12.0;80.03
67430;BME280;54298;52.076;5.264;2022-12-29T00:43:45;99776.0;;;12.06;79.77
67430;BME280;54298;52.076;5.264;2022-12-29T00:46:57;99773.0;;;11.93;79.91
67430;BME280;54298;52.076;5.264;2022-12-29T00:48:33;99767.0;;;12.11;79.58
67430;BME280;54298;52.076;5.264;2022-12-29T00:50:10;99766.0;;;12.22;78.74
67430;BME280;54298;52.076;5.264;2022-12-29T00:51:46;99768.0;;;12.18;78.75
67430;BME280;54298;52.076;5.264;2022-12-29T00:54:59;99765.0;;;12.15;78.8
67430;BME280;54298;52.076;5.264;2022-12-29T00:56:35;99766.0;;;12.03;79.12
67430;BME280;54298;52.076;5.264;2022-12-29T00:58:13;99763.0;;;12.13;79.34
67430;BME280;54298;52.076;5.264;2022-12-29T01:01:26;99756.0;;;12.17;79.33
67430;BME280;54298;52.076;5.264;2022-12-29T01:03:02;99756.0;;;12.05;79.69
67430;BME280;54298;52.076;5.264;2022-12-29T01:04:38;99751.0;;;12.02;79.86
67430;BME280;54298;52.076;5.264;2022-12-29T01:07:51;99751.0;;;12.0;79.87
67430;BME280;54298;52.076;5.264;2022-12-29T01:09:27;99749.0;;;12.05;79.73
67430;BME280;54298;52.076;5.264;2022-12-29T01:11:05;99744.0;;;12.11;79.77
67430;BME280;54298;52.076;5.264;2022-12-29T01:12:42;99744.0;;;12.12;80.22
67430;BME280;54298;52.076;5.264;2022-12-29T01:15:56;99744.0;;;11.88;81.39
67430;BME280;54298;52.076;5.264;2022-12-29T01:17:33;99742.0;;;11.76;82.84
67430;BME280;54298;52.076;5.264;2022-12-29T01:19:10;99740.0;;;11.67;84.09
67430;BME280;54298;52.076;5.264;2022-12-29T01:22:24;99733.0;;;11.64;84.58
67430;BME280;54298;52.076;5.264;2022-12-29T01:24:00;99740.0;;;11.6;85.39
67430;BME280;54298;52.076;5.264;2022-12-29T01:25:37;99741.0;;;11.73;85.24
67430;BME280;54298;52.076;5.264;2022-12-29T01:28:50;99737.0;;;11.63;85.93
67430;BME280;54298;52.076;5.264;2022-12-29T01:30:26;99732.0;;;11.26;87.47
67430;BME280;54298;52.076;5.264;2022-12-29T01:32:03;99730.0;;;11.21;88.26
67430;BME280;54298;52.076;5.264;2022-12-29T01:33:40;99733.0;;;11.28;88.14
67430;BME280;54298;52.076;5.264;2022-12-29T01:36:55;99743.0;;;11.31;88.19
67430;BME280;54298;52.076;5.264;2022-12-29T01:38:31;99733.0;;;11.29;88.54
67430;BME280;54298;52.076;5.264;2022-12-29T01:40:10;99737.0;;;11.19;89.27
67430;BME280;54298;52.076;5.264;2022-12-29T01:43:38;99735.0;;;11.2;89.24
67430;BME280;54298;52.076;5.264;2022-12-29T01:45:17;99746.0;;;11.2;89.23
67430;BME280;54298;52.076;5.264;2022-12-29T01:46:54;99757.0;;;11.15;89.52
67430;BME280;54298;52.076;5.264;2022-12-29T01:48:30;99755.0;;;11.28;89.23
67430;BME280;54298;52.076;5.264;2022-12-29T01:51:53;99742.0;;;11.18;89.5
67430;BME280;54298;52.076;5.264;2022-12-29T01:53:35;99741.0;;;11.11;89.48
67430;BME280;54298;52.076;5.264;2022-12-29T01:55:12;99739.0;;;11.13;89.39
67430;BME280;54298;52.076;5.264;2022-12-29T01:56:50;99735.0;;;11.16;88.89
67430;BME280;54298;52.076;5.264;2022-12-29T02:00:11;99730.0;;;11.11;89.0
67430;BME280;54298;52.076;5.264;2022-12-29T02:01:49;99739.0;;;11.14;88.96
67430;BME280;54298;52.076;5.264;2022-12-29T02:03:27;99744.0;;;11.21;88.73
67430;BME280;54298;52.076;5.264;2022-12-29T02:05:10;99756.0;;;11.44;88.01
67430;BME280;54298;52.076;5.264;2022-12-29T02:08:32;99750.0;;;11.41;87.87
67430;BME280;54298;52.076;5.264;2022-12-29T02:10:08;99750.0;;;11.33;88.07
67430;BME280;54298;52.076;5.264;2022-12-29T02:11:44;99756.0;;;11.33;87.94
67430;BME280;54298;52.076;5.264;2022-12-29T02:15:02;99753.0;;;11.44;87.53
67430;BME280;54298;52.076;5.264;2022-12-29T02:16:53;99759.0;;;11.32;87.82
67430;BME280;54298;52.076;5.264;2022-12-29T02:18:43;99757.0;;;11.41;87.55
67430;BME280;54298;52.076;5.264;2022-12-29T02:20:42;99755.0;;;11.47;87.18
67430;BME280;54298;52.076;5.264;2022-12-29T02:24:20;99758.0;;;11.42;86.8
67430;BME280;54298;52.076;5.264;2022-12-29T02:30:57;99755.0;;;11.41;85.82
67430;BME280;54298;52.076;5.264;2022-12-29T02:32:46;99752.0;;;11.36;85.47
67430;BME280;54298;52.076;5.264;2022-12-29T02:34:35;99753.0;;;11.24;85.55
67430;BME280;54298;52.076;5.264;2022-12-29T02:36:26;99763.0;;;11.34;84.72
67430;BME280;54298;52.076;5.264;2022-12-29T02:40:00;99758.0;;;11.3;84.23
67430;BME280;54298;52.076;5.264;2022-12-29T02:41:48;99734.0;;;11.31;83.83
67430;BME280;54298;52.076;5.264;2022-12-29T02:43:44;99740.0;;;11.37;83.08
67430;BME280;54298;52.076;5.264;2022-12-29T02:45:32;99744.0;;;11.46;82.27
67430;BME280;54298;52.076;5.264;2022-12-29T02:47:18;99745.0;;;11.46;81.93
67430;BME280;54298;52.076;5.264;2022-12-29T02:49:05;99738.0;;;11.42;81.66
67430;BME280;54298;52.076;5.264;2022-12-29T02:52:36;99744.0;;;11.44;81.47
67430;BME280;54298;52.076;5.264;2022-12-29T02:54:16;99740.0;;;11.51;81.27
67430;BME280;54298;52.076;5.264;2022-12-29T02:55:53;99747.0;;;11.53;81.36
67430;BME280;54298;52.076;5.264;2022-12-29T02:57:32;99744.0;;;11.6;81.36
67430;BME280;54298;52.076;5.264;2022-12-29T03:01:03;99747.0;;;11.58;81.33
67430;BME280;54298;52.076;5.264;2022-12-29T03:03:05;99763.0;;;11.52;81.66
67430;BME280;54298;52.076;5.264;2022-12-29T03:05:05;99767.0;;;11.48;81.7
67430;BME280;54298;52.076;5.264;2022-12-29T03:06:58;99756.0;;;11.39;81.99
67430;BME280;54298;52.076;5.264;2022-12-29T03:08:44;99758.0;;;11.38;82.25
67430;BME280;54298;52.076;5.264;2022-12-29T03:10:33;99746.0;;;11.37;82.19
67430;BME280;54298;52.076;5.264;2022-12-29T03:12:28;99747.0;;;11.37;82.3
67430;BME280;54298;52.076;5.264;2022-12-29T03:14:09;99747.0;;;11.36;82.33
67430;BME280;54298;52.076;5.264;2022-12-29T03:17:43;99746.0;;;11.34;82.42
67430;BME280;54298;52.076;5.264;2022-12-29T03:19:28;99756.0;;;11.4;82.31
67430;BME280;54298;52.076;5.264;2022-12-29T03:21:11;99755.0;;;11.39;82.23
67430;BME280;54298;52.076;5.264;2022-12-29T03:22:51;99755.0;;;11.32;82.23
67430;BME280;54298;52.076;5.264;2022-12-29T03:24:35;99744.0;;;11.45;81.91
67430;BME280;54298;52.076;5.264;2022-12-29T03:28:07;99733.0;;;11.33;82.13
67430;BME280;54298;52.076;5.264;2022-12-29T03:29:47;99731.0;;;11.26;82.47
67430;BME280;54298;52.076;5.264;2022-12-29T03:31:26;99727.0;;;11.34;82.48
67430;BME280;54298;52.076;5.264;2022-12-29T03:33:07;99725.0;;;11.32;82.17
67430;BME280;54298;52.076;5.264;2022-12-29T03:36:27;99720.0;;;11.26;81.86
67430;BME280;54298;52.076;5.264;2022-12-29T03:38:15;99722.0;;;11.27;81.77
67430;BME280;54298;52.076;5.264;2022-12-29T03:39:55;99725.0;;;11.21;81.88
67430;BME280;54298;52.076;5.264;2022-12-29T03:41:33;99728.0;;;11.23;81.77
67430;BME280;54298;52.076;5.264;2022-12-29T03:44:48;99725.0;;;11.26;81.45
67430;BME280;54298;52.076;5.264;2022-12-29T03:46:30;99718.0;;;11.19;81.44
67430;BME280;54298;52.076;5.264;2022-12-29T03:48:06;99716.0;;;11.21;81.28
67430;BME280;54298;52.076;5.264;2022-12-29T03:49:42;99713.0;;;11.18;81.3
67430;BME280;54298;52.076;5.264;2022-12-29T03:52:59;99717.0;;;11.1;81.5
67430;BME280;54298;52.076;5.264;2022-12-29T03:54:35;99721.0;;;10.99;81.96
67430;BME280;54298;52.076;5.264;2022-12-29T03:56:11;99714.0;;;11.08;81.74
67430;BME280;54298;52.076;5.264;2022-12-29T04:01:00;99707.0;;;10.91;82.29
67430;BME280;54298;52.076;5.264;2022-12-29T04:02:36;99716.0;;;11.13;81.69
67430;BME280;54298;52.076;5.264;2022-12-29T04:04:12;99711.0;;;11.12;81.53
67430;BME280;54298;52.076;5.264;2022-12-29T04:07:25;99713.0;;;11.07;81.67
67430;BME280;54298;52.076;5.264;2022-12-29T04:09:02;99702.0;;;10.95;81.83
67430;BME280;54298;52.076;5.264;2022-12-29T04:10:39;99699.0;;;11.07;81.61
67430;BME280;54298;52.076;5.264;2022-12-29T04:13:52;99713.0;;;10.96;81.83
67430;BME280;54298;52.076;5.264;2022-12-29T04:15:29;99714.0;;;10.96;81.77
67430;BME280;54298;52.076;5.264;2022-12-29T04:17:05;99722.0;;;10.89;81.78
67430;BME280;54298;52.076;5.264;2022-12-29T04:20:19;99720.0;;;11.0;81.61
67430;BME280;54298;52.076;5.264;2022-12-29T04:21:55;99734.0;;;10.81;81.61
67430;BME280;54298;52.076;5.264;2022-12-29T04:25:11;99739.0;;;10.78;80.38
67430;BME280;54298;52.076;5.264;2022-12-29T04:28:23;99744.0;;;10.9;79.97
67430;BME280;54298;52.076;5.264;2022-12-29T04:30:00;99740.0;;;10.96;79.41
67430;BME280;54298;52.076;5.264;2022-12-29T04:31:36;99739.0;;;10.96;79.16
67430;BME280;54298;52.076;5.264;2022-12-29T04:34:50;99745.0;;;10.91;78.62
67430;BME280;54298;52.076;5.264;2022-12-29T04:36:26;99753.0;;;10.93;77.63
67430;BME280;54298;52.076;5.264;2022-12-29T04:38:03;99747.0;;;10.92;77.63
67430;BME280;54298;52.076;5.264;2022-12-29T04:41:15;99756.0;;;10.99;77.11
67430;BME280;54298;52.076;5.264;2022-12-29T04:42:51;99759.0;;;10.99;77.12
67430;BME280;54298;52.076;5.264;2022-12-29T04:44:28;99746.0;;;11.07;76.87
67430;BME280;54298;52.076;5.264;2022-12-29T04:46:04;99752.0;;;11.06;76.61
67430;BME280;54298;52.076;5.264;2022-12-29T04:49:17;99766.0;;;11.02;76.41
67430;BME280;54298;52.076;5.264;2022-12-29T04:50:53;99755.0;;;11.08;76.22
67430;BME280;54298;52.076;5.264;2022-12-29T04:52:30;99759.0;;;11.18;76.08
67430;BME280;54298;52.076;5.264;2022-12-29T04:55:47;99761.0;;;11.24;75.94
67430;BME280;54298;52.076;5.264;2022-12-29T04:57:24;99760.0;;;11.15;75.77
67430;BME280;54298;52.076;5.264;2022-12-29T04:59:02;99768.0;;;11.22;75.72
67430;BME280;54298;52.076;5.264;2022-12-29T05:00:38;99770.0;;;11.17;75.73
67430;BME280;54298;52.076;5.264;2022-12-29T05:03:51;99768.0;;;11.34;75.36
67430;BME280;54298;52.076;5.264;2022-12-29T05:05:27;99770.0;;;11.27;75.11
67430;BME280;54298;52.076;5.264;2022-12-29T05:07:04;99774.0;;;11.13;75.23
67430;BME280;54298;52.076;5.264;2022-12-29T05:10:18;99762.0;;;11.11;75.48
67430;BME280;54298;52.076;5.264;2022-12-29T05:11:54;99776.0;;;10.98;75.55
67430;BME280;54298;52.076;5.264;2022-12-29T05:13:30;99780.0;;;11.0;75.72
67430;BME280;54298;52.076;5.264;2022-12-29T05:16:45;99770.0;;;10.97;75.36
67430;BME280;54298;52.076;5.264;2022-12-29T05:18:22;99775.0;;;10.94;75.38
67430;BME280;54298;52.076;5.264;2022-12-29T05:19:58;99775.0;;;10.87;75.55
67430;BME280;54298;52.076;5.264;2022-12-29T05:21:35;99787.0;;;10.92;75.28
67430;BME280;54298;52.076;5.264;2022-12-29T05:24:49;99783.0;;;11.07;74.99
67430;BME280;54298;52.076;5.264;2022-12-29T05:26:25;99794.0;;;10.97;75.33
67430;BME280;54298;52.076;5.264;2022-12-29T05:28:02;99786.0;;;10.86;75.08
67430;BME280;54298;52.076;5.264;2022-12-29T05:31:15;99790.0;;;10.93;74.86
67430;BME280;54298;52.076;5.264;2022-12-29T05:32:51;99781.0;;;11.07;74.59
67430;BME280;54298;52.076;5.264;2022-12-29T05:34:28;99780.0;;;11.04;74.66
67430;BME280;54298;52.076;5.264;2022-12-29T05:37:44;99789.0;;;11.04;74.56
67430;BME280;54298;52.076;5.264;2022-12-29T05:39:21;99782.0;;;11.01;74.53
67430;BME280;54298;52.076;5.264;2022-12-29T05:40:57;99782.0;;;10.99;74.62
67430;BME280;54298;52.076;5.264;2022-12-29T05:42:33;99781.0;;;11.05;74.62
67430;BME280;54298;52.076;5.264;2022-12-29T05:45:48;99780.0;;;11.1;74.66
67430;BME280;54298;52.076;5.264;2022-12-29T05:47:25;99775.0;;;11.02;74.77
67430;BME280;54298;52.076;5.264;2022-12-29T05:49:01;99787.0;;;11.0;74.72
67430;BME280;54298;52.076;5.264;2022-12-29T05:52:13;99775.0;;;10.88;74.81
67430;BME280;54298;52.076;5.264;2022-12-29T05:53:49;99793.0;;;10.83;75.06
67430;BME280;54298;52.076;5.264;2022-12-29T05:55:26;99798.0;;;10.96;74.55
67430;BME280;54298;52.076;5.264;2022-12-29T05:58:39;99798.0;;;10.96;74.09
67430;BME280;54298;52.076;5.264;2022-12-29T06:00:16;99799.0;;;10.98;73.8
67430;BME280;54298;52.076;5.264;2022-12-29T06:01:52;99802.0;;;10.96;73.44
67430;BME280;54298;52.076;5.264;2022-12-29T06:03:28;99814.0;;;10.87;73.56
67430;BME280;54298;52.076;5.264;2022-12-29T06:06:42;99823.0;;;11.02;74.09
67430;BME280;54298;52.076;5.264;2022-12-29T06:08:19;99820.0;;;10.98;74.83
67430;BME280;54298;52.076;5.264;2022-12-29T06:09:55;99818.0;;;10.93;75.05
67430;BME280;54298;52.076;5.264;2022-12-29T06:13:09;99820.0;;;10.85;75.12
67430;BME280;54298;52.076;5.264;2022-12-29T06:14:45;99828.0;;;10.72;75.22
67430;BME280;54298;52.076;5.264;2022-12-29T06:16:22;99830.0;;;10.71;75.05
67430;BME280;54298;52.076;5.264;2022-12-29T06:19:36;99819.0;;;10.61;74.67
67430;BME280;54298;52.076;5.264;2022-12-29T06:21:12;99834.0;;;10.7;74.89
67430;BME280;54298;52.076;5.264;2022-12-29T06:22:48;99820.0;;;10.65;75.16
67430;BME280;54298;52.076;5.264;2022-12-29T06:24:25;99826.0;;;10.72;75.58
67430;BME280;54298;52.076;5.264;2022-12-29T06:27:40;99825.0;;;10.66;75.89
67430;BME280;54298;52.076;5.264;2022-12-29T06:29:17;99830.0;;;10.68;76.11
67430;BME280;54298;52.076;5.264;2022-12-29T06:30:53;99830.0;;;10.53;76.52
67430;BME280;54298;52.076;5.264;2022-12-29T06:34:06;99830.0;;;10.5;76.5
67430;BME280;54298;52.076;5.264;2022-12-29T06:35:43;99855.0;;;10.49;77.11
67430;BME280;54298;52.076;5.264;2022-12-29T06:37:20;99848.0;;;10.42;77.47
67430;BME280;54298;52.076;5.264;2022-12-29T06:38:56;99855.0;;;10.47;77.33
67430;BME280;54298;52.076;5.264;2022-12-29T06:42:10;99858.0;;;10.42;76.98
67430;BME280;54298;52.076;5.264;2022-12-29T06:43:46;99862.0;;;10.42;76.25
67430;BME280;54298;52.076;5.264;2022-12-29T06:45:22;99853.0;;;10.38;75.38
67430;BME280;54298;52.076;5.264;2022-12-29T06:48:37;99860.0;;;10.45;74.94
67430;BME280;54298;52.076;5.264;2022-12-29T06:50:13;99842.0;;;10.41;74.23
67430;BME280;54298;52.076;5.264;2022-12-29T06:51:50;99832.0;;;10.47;73.91
67430;BME280;54298;52.076;5.264;2022-12-29T06:55:05;99836.0;;;10.44;72.95
67430;BME280;54298;52.076;5.264;2022-12-29T06:56:42;99839.0;;;10.54;72.58
67430;BME280;54298;52.076;5.264;2022-12-29T06:58:20;99839.0;;;10.53;72.05
67430;BME280;54298;52.076;5.264;2022-12-29T06:59:56;99845.0;;;10.51;72.03
67430;BME280;54298;52.076;5.264;2022-12-29T07:03:09;99855.0;;;10.5;72.3
67430;BME280;54298;52.076;5.264;2022-12-29T07:04:46;99863.0;;;10.34;73.45
67430;BME280;54298;52.076;5.264;2022-12-29T07:06:22;99867.0;;;10.27;75.22
67430;BME280;54298;52.076;5.264;2022-12-29T07:09:36;99851.0;;;10.19;77.08
67430;BME280;54298;52.076;5.264;2022-12-29T07:11:12;99858.0;;;10.03;77.98
67430;BME280;54298;52.076;5.264;2022-12-29T07:12:49;99848.0;;;10.01;78.49
67430;BME280;54298;52.076;5.264;2022-12-29T07:16:05;99845.0;;;9.97;79.33
67430;BME280;54298;52.076;5.264;2022-12-29T07:17:41;99847.0;;;9.77;80.03
67430;BME280;54298;52.076;5.264;2022-12-29T07:20:56;99862.0;;;9.73;80.74
67430;BME280;54298;52.076;5.264;2022-12-29T07:24:09;99867.0;;;9.6;81.33
67430;BME280;54298;52.076;5.264;2022-12-29T07:25:45;99866.0;;;9.61;81.45
67430;BME280;54298;52.076;5.264;2022-12-29T07:27:21;99867.0;;;9.56;81.8
67430;BME280;54298;52.076;5.264;2022-12-29T07:30:37;99861.0;;;9.61;81.42
67430;BME280;54298;52.076;5.264;2022-12-29T07:32:14;99873.0;;;9.59;81.72
67430;BME280;54298;52.076;5.264;2022-12-29T07:33:50;99882.0;;;9.49;82.0
67430;BME280;54298;52.076;5.264;2022-12-29T07:35:27;99883.0;;;9.56;81.48
67430;BME280;54298;52.076;5.264;2022-12-29T07:38:41;99880.0;;;9.64;81.19
67430;BME280;54298;52.076;5.264;2022-12-29T07:40:19;99878.0;;;9.64;80.92
67430;BME280;54298;52.076;5.264;2022-12-29T07:41:56;99872.0;;;9.68;80.62
67430;BME280;54298;52.076;5.264;2022-12-29T07:45:10;99891.0;;;9.88;80.14
67430;BME280;54298;52.076;5.264;2022-12-29T07:46:47;99883.0;;;9.97;79.38
67430;BME280;54298;52.076;5.264;2022-12-29T07:48:23;99886.0;;;10.0;79.06
67430;BME280;54298;52.076;5.264;2022-12-29T07:51:36;99893.0;;;10.06;78.63
67430;BME280;54298;52.076;5.264;2022-12-29T07:53:14;99890.0;;;10.1;78.77
67430;BME280;54298;52.076;5.264;2022-12-29T07:54:51;99890.0;;;10.01;78.86
67430;BME280;54298;52.076;5.264;2022-12-29T07:56:27;99889.0;;;10.03;78.22
67430;BME280;54298;52.076;5.264;2022-12-29T07:59:40;99887.0;;;10.1;77.8
67430;BME280;54298;52.076;5.264;2022-12-29T08:01:16;99894.0;;;10.14;77.58
67430;BME280;54298;52.076;5.264;2022-12-29T08:02:52;99887.0;;;10.11;77.39
67430;BME280;54298;52.076;5.264;2022-12-29T08:06:05;99887.0;;;10.22;77.08
67430;BME280;54298;52.076;5.264;2022-12-29T08:09:21;99889.0;;;10.25;76.39
67430;BME280;54298;52.076;5.264;2022-12-29T08:10:57;99890.0;;;10.38;76.02
67430;BME280;54298;52.076;5.264;2022-12-29T08:14:10;99880.0;;;10.35;75.7
67430;BME280;54298;52.076;5.264;2022-12-29T08:15:47;99868.0;;;10.21;75.55
67430;BME280;54298;52.076;5.264;2022-12-29T08:17:23;99878.0;;;10.25;75.22
67430;BME280;54298;52.076;5.264;2022-12-29T08:20:36;99876.0;;;10.23;74.94
67430;BME280;54298;52.076;5.264;2022-12-29T08:22:13;99878.0;;;10.41;73.97
67430;BME280;54298;52.076;5.264;2022-12-29T08:23:49;99877.0;;;10.34;73.72
67430;BME280;54298;52.076;5.264;2022-12-29T08:27:01;99876.0;;;10.45;73.72
67430;BME280;54298;52.076;5.264;2022-12-29T08:28:38;99874.0;;;10.39;72.27
67430;BME280;54298;52.076;5.264;2022-12-29T08:30:14;99881.0;;;10.42;72.31
67430;BME280;54298;52.076;5.264;2022-12-29T08:33:27;99883.0;;;10.46;71.99
67430;BME280;54298;52.076;5.264;2022-12-29T08:35:05;99881.0;;;10.44;71.58
67430;BME280;54298;52.076;5.264;2022-12-29T08:36:42;99874.0;;;10.51;71.58
67430;BME280;54298;52.076;5.264;2022-12-29T08:38:18;99882.0;;;10.55;71.47
67430;BME280;54298;52.076;5.264;2022-12-29T08:41:31;99888.0;;;10.6;71.08
67430;BME280;54298;52.076;5.264;2022-12-29T08:43:07;99890.0;;;10.63;71.05
67430;BME280;54298;52.076;5.264;2022-12-29T08:44:43;99886.0;;;10.56;71.25
67430;BME280;54298;52.076;5.264;2022-12-29T08:47:57;99885.0;;;10.54;71.88
67430;BME280;54298;52.076;5.264;2022-12-29T08:49:33;99892.0;;;10.61;72.36
67430;BME280;54298;52.076;5.264;2022-12-29T08:51:09;99889.0;;;10.64;72.64
67430;BME280;54298;52.076;5.264;2022-12-29T08:54:22;99890.0;;;10.52;73.02
67430;BME280;54298;52.076;5.264;2022-12-29T08:55:59;99888.0;;;10.51;73.08
67430;BME280;54298;52.076;5.264;2022-12-29T08:57:36;99886.0;;;10.55;73.47
67430;BME280;54298;52.076;5.264;2022-12-29T08:59:12;99894.0;;;10.54;73.31
67430;BME280;54298;52.076;5.264;2022-12-29T09:02:27;99895.0;;;10.54;73.38
67430;BME280;54298;52.076;5.264;2022-12-29T09:04:04;99908.0;;;10.62;73.66
67430;BME280;54298;52.076;5.264;2022-12-29T09:05:40;99905.0;;;10.58;74.05
67430;BME280;54298;52.076;5.264;2022-12-29T09:08:54;99917.0;;;10.65;73.72
67430;BME280;54298;52.076;5.264;2022-12-29T09:10:30;99891.0;;;10.51;74.34
67430;BME280;54298;52.076;5.264;2022-12-29T09:12:07;99912.0;;;10.55;74.94
67430;BME280;54298;52.076;5.264;2022-12-29T09:13:43;99909.0;;;10.51;75.17
67430;BME280;54298;52.076;5.264;2022-12-29T09:16:56;99912.0;;;10.51;75.11
67430;BME280;54298;52.076;5.264;2022-12-29T09:18:33;99913.0;;;10.43;75.66
67430;BME280;54298;52.076;5.264;2022-12-29T09:20:10;99920.0;;;10.52;75.66
67430;BME280;54298;52.076;5.264;2022-12-29T09:23:23;99918.0;;;10.54;75.66
67430;BME280;54298;52.076;5.264;2022-12-29T09:25:00;99932.0;;;10.45;75.17
67430;BME280;54298;52.076;5.264;2022-12-29T09:26:36;99935.0;;;10.33;75.7
67430;BME280;54298;52.076;5.264;2022-12-29T09:29:48;99941.0;;;10.42;76.42
67430;BME280;54298;52.076;5.264;2022-12-29T09:31:25;99952.0;;;10.44;76.97
67430;BME280;54298;52.076;5.264;2022-12-29T09:33:02;99955.0;;;10.45;77.91
67430;BME280;54298;52.076;5.264;2022-12-29T09:34:39;99955.0;;;10.37;78.5
67430;BME280;54298;52.076;5.264;2022-12-29T09:37:53;99973.0;;;10.23;79.91
67430;BME280;54298;52.076;5.264;2022-12-29T09:39:28;99976.0;;;10.11;80.8
67430;BME280;54298;52.076;5.264;2022-12-29T09:41:07;99968.0;;;10.05;81.72
67430;BME280;54298;52.076;5.264;2022-12-29T09:44:51;99964.0;;;9.98;82.11
67430;BME280;54298;52.076;5.264;2022-12-29T09:46:39;99969.0;;;10.03;82.54
67430;BME280;54298;52.076;5.264;2022-12-29T09:48:20;99980.0;;;10.06;82.74
67430;BME280;54298;52.076;5.264;2022-12-29T09:50:02;99975.0;;;9.98;83.2
67430;BME280;54298;52.076;5.264;2022-12-29T09:51:43;99988.0;;;10.03;83.37
67430;BME280;54298;52.076;5.264;2022-12-29T09:55:10;99990.0;;;10.06;83.41
67430;BME280;54298;52.076;5.264;2022-12-29T09:56:51;99989.0;;;10.07;83.2
67430;BME280;54298;52.076;5.264;2022-12-29T09:58:33;99999.0;;;9.92;83.78
67430;BME280;54298;52.076;5.264;2022-12-29T10:01:57;99995.0;;;9.9;83.53
67430;BME280;54298;52.076;5.264;2022-12-29T10:03:43;100003.0;;;9.82;83.79
67430;BME280;54298;52.076;5.264;2022-12-29T10:05:29;100005.0;;;9.85;83.93
67430;BME280;54298;52.076;5.264;2022-12-29T10:07:17;100003.0;;;9.88;84.0
67430;BME280;54298;52.076;5.264;2022-12-29T10:09:02;100016.0;;;9.97;83.66
67430;BME280;54298;52.076;5.264;2022-12-29T10:10:51;100011.0;;;10.06;83.46
67430;BME280;54298;52.076;5.264;2022-12-29T10:12:38;100015.0;;;9.99;83.31
67430;BME280;54298;52.076;5.264;2022-12-29T10:14:35;100022.0;;;10.08;83.73
67430;BME280;54298;52.076;5.264;2022-12-29T10:18:09;100025.0;;;10.02;83.42
67430;BME280;54298;52.076;5.264;2022-12-29T10:20:06;100019.0;;;10.07;83.71
67430;BME280;54298;52.076;5.264;2022-12-29T10:22:04;100030.0;;;10.08;83.42
67430;BME280;54298;52.076;5.264;2022-12-29T10:23:48;100030.0;;;10.13;83.31
67430;BME280;54298;52.076;5.264;2022-12-29T10:25:30;100032.0;;;10.08;83.3
67430;BME280;54298;52.076;5.264;2022-12-29T10:27:12;100037.0;;;10.05;83.7
67430;BME280;54298;52.076;5.264;2022-12-29T10:30:32;100043.0;;;10.16;83.53
67430;BME280;54298;52.076;5.264;2022-12-29T10:32:17;100048.0;;;10.11;83.76
67430;BME280;54298;52.076;5.264;2022-12-29T10:34:14;100052.0;;;10.1;83.56
67430;BME280;54298;52.076;5.264;2022-12-29T10:37:37;100055.0;;;10.14;83.48
67430;BME280;54298;52.076;5.264;2022-12-29T10:41:11;100060.0;;;10.03;84.2
67430;BME280;54298;52.076;5.264;2022-12-29T10:42:52;100059.0;;;10.05;84.27
67430;BME280;54298;52.076;5.264;2022-12-29T10:44:30;100069.0;;;10.06;83.96
67430;BME280;54298;52.076;5.264;2022-12-29T10:46:11;100077.0;;;10.23;83.66
67430;BME280;54298;52.076;5.264;2022-12-29T10:49:38;100073.0;;;10.14;83.32
67430;BME280;54298;52.076;5.264;2022-12-29T10:51:21;100081.0;;;10.21;83.49
67430;BME280;54298;52.076;5.264;2022-12-29T10:53:04;100080.0;;;10.27;83.12
67430;BME280;54298;52.076;5.264;2022-12-29T10:54:45;100092.0;;;10.32;82.99
67430;BME280;54298;52.076;5.264;2022-12-29T10:56:32;100090.0;;;10.27;83.07
67430;BME280;54298;52.076;5.264;2022-12-29T10:59:50;100087.0;;;10.17;83.75
67430;BME280;54298;52.076;5.264;2022-12-29T11:01:37;100106.0;;;10.08;83.79
67430;BME280;54298;52.076;5.264;2022-12-29T11:03:30;100107.0;;;10.25;83.51
67430;BME280;54298;52.076;5.264;2022-12-29T11:05:27;100106.0;;;10.26;83.0
67430;BME280;54298;52.076;5.264;2022-12-29T11:07:09;100111.0;;;10.23;82.92
67430;BME280;54298;52.076;5.264;2022-12-29T11:10:36;100120.0;;;10.14;82.89
67430;BME280;54298;52.076;5.264;2022-12-29T11:12:20;100117.0;;;10.18;82.99
67430;BME280;54298;52.076;5.264;2022-12-29T11:13:59;100127.0;;;10.29;82.76
67430;BME280;54298;52.076;5.264;2022-12-29T11:15:40;100136.0;;;10.32;82.77
67430;BME280;54298;52.076;5.264;2022-12-29T11:17:17;100125.0;;;10.23;82.9
67430;BME280;54298;52.076;5.264;2022-12-29T11:20:32;100140.0;;;10.43;82.52
67430;BME280;54298;52.076;5.264;2022-12-29T11:25:35;100142.0;;;10.53;81.69
67430;BME280;54298;52.076;5.264;2022-12-29T11:30:24;100147.0;;;10.56;81.06
67430;BME280;54298;52.076;5.264;2022-12-29T11:32:11;100156.0;;;10.6;80.5
67430;BME280;54298;52.076;5.264;2022-12-29T11:35:33;100166.0;;;10.68;80.05
67430;BME280;54298;52.076;5.264;2022-12-29T11:37:14;100165.0;;;10.62;79.64
67430;BME280;54298;52.076;5.264;2022-12-29T11:38:53;100164.0;;;10.52;79.83